Terminal Aerodrome Forecast
Issued by NWS Charleston, WV

Current Version | Previous Version | Graphics & Text | Print | Product List | Glossary On
Versions: 1 2 3 4 5 6 7 8 9 10 11 12 13 14 15 16 17 18 19 20 21 22
904
FTUS41 KRLX 251143
TAFHTS
TAF
KHTS 251143Z 2512/2612 VRB03KT P6SM SCT250
     FM260900 00000KT 2SM BR SCT001
     FM261000 00000KT 1/2SM FG VV001=

USA.gov is the U.S. government's official web portal to all federal, state and local government web resources and services.